createdAt,value
2024-01-25T00:00:30.025Z,34.33
2024-01-25T00:01:02.030Z,33.63
2024-01-25T00:01:34.617Z,34.40
2024-01-25T00:02:10.910Z,34.30
2024-01-25T00:02:44.610Z,32.53
2024-01-25T00:03:17.905Z,31.43
2024-01-25T00:03:49.805Z,30.80
2024-01-25T00:04:21.936Z,31.23
2024-01-25T00:04:54.273Z,31.40
2024-01-25T00:05:28.962Z,31.57
2024-01-25T00:06:09.798Z,31.70
2024-01-25T00:06:43.636Z,31.90
2024-01-25T00:07:16.238Z,32.00
2024-01-25T00:07:48.958Z,31.83
2024-01-25T00:08:20.969Z,32.70
2024-01-25T00:08:54.169Z,31.67
2024-01-25T00:09:25.925Z,33.47
2024-01-25T00:09:59.630Z,32.37
2024-01-25T00:10:31.860Z,31.73
2024-01-25T00:11:04.509Z,33.07
2024-01-25T00:11:36.888Z,31.90
2024-01-25T00:12:08.837Z,31.97
2024-01-25T00:12:40.867Z,32.20
2024-01-25T00:13:13.720Z,34.10
2024-01-25T00:13:48.585Z,33.53
2024-01-25T00:14:20.467Z,32.17
2024-01-25T00:14:53.642Z,31.73
2024-01-25T00:15:25.502Z,32.00
2024-01-25T00:15:57.457Z,32.47
2024-01-25T00:16:29.355Z,33.53
2024-01-25T00:17:01.273Z,33.87
2024-01-25T00:17:33.206Z,35.10
2024-01-25T00:18:06.361Z,34.43
2024-01-25T00:18:38.470Z,33.23
2024-01-25T00:19:11.899Z,33.17
2024-01-25T00:19:46.751Z,33.03
2024-01-25T00:20:18.837Z,33.60
2024-01-25T00:20:51.150Z,32.53
2024-01-25T00:21:23.011Z,32.47
2024-01-25T00:21:54.955Z,33.53
2024-01-25T00:22:27.677Z,33.57
2024-01-25T00:22:59.582Z,32.53
2024-01-25T00:23:32.676Z,30.97
2024-01-25T00:24:05.015Z,31.70
2024-01-25T00:24:38.316Z,31.17
2024-01-25T00:25:10.343Z,30.57
2024-01-25T00:25:42.480Z,31.67
2024-01-25T00:26:14.453Z,32.63
2024-01-25T00:26:49.630Z,33.43
2024-01-25T00:27:21.862Z,32.50
2024-01-25T00:27:54.261Z,32.37
2024-01-25T00:28:27.022Z,32.03
2024-01-25T00:28:59.421Z,31.53
2024-01-25T00:29:32.578Z,31.20
2024-01-25T00:30:06.180Z,32.80
2024-01-25T00:30:38.250Z,33.50
2024-01-25T00:31:10.113Z,33.33
2024-01-25T00:31:42.607Z,32.07
2024-01-25T00:32:14.782Z,32.87
2024-01-25T00:32:46.874Z,33.23
2024-01-25T00:33:19.399Z,32.43
2024-01-25T00:33:51.668Z,31.00
2024-01-25T00:34:23.942Z,30.00
2024-01-25T00:34:56.101Z,31.93
2024-01-25T00:35:28.715Z,31.97
2024-01-25T00:36:00.954Z,31.40
2024-01-25T00:36:33.042Z,31.20
2024-01-25T00:37:05.076Z,31.10
2024-01-25T00:37:37.789Z,32.27
2024-01-25T00:38:10.474Z,31.83
2024-01-25T00:38:42.648Z,31.20
2024-01-25T00:39:14.565Z,31.40
2024-01-25T00:39:46.647Z,31.27
2024-01-25T00:40:19.672Z,30.27
2024-01-25T00:40:51.955Z,31.60
2024-01-25T00:41:24.418Z,31.50
2024-01-25T00:42:03.428Z,32.03
2024-01-25T00:42:57.065Z,31.87
2024-01-25T00:43:29.300Z,33.07
2024-01-25T00:44:02.209Z,32.87
2024-01-25T00:44:34.473Z,33.20
2024-01-25T00:45:06.675Z,32.60
2024-01-25T00:45:39.041Z,32.03
2024-01-25T00:46:11.442Z,31.50
2024-01-25T00:46:44.378Z,32.77
2024-01-25T00:47:17.005Z,33.10
2024-01-25T00:47:49.128Z,32.17
2024-01-25T00:48:22.582Z,33.10
2024-01-25T00:48:54.718Z,33.73
2024-01-25T00:49:27.129Z,33.67
2024-01-25T00:49:59.388Z,32.90
2024-01-25T00:50:31.627Z,32.23
2024-01-25T00:51:08.156Z,31.77
2024-01-25T00:51:47.315Z,31.57
2024-01-25T00:52:19.360Z,32.37
2024-01-25T00:52:53.897Z,32.80
2024-01-25T00:53:26.085Z,31.17
2024-01-25T00:53:57.963Z,31.97
2024-01-25T00:54:30.469Z,32.80
2024-01-25T00:55:03.847Z,31.17
2024-01-25T00:55:35.898Z,30.93
2024-01-25T00:56:08.276Z,31.93
2024-01-25T00:56:40.216Z,34.23
2024-01-25T00:57:12.482Z,32.67
2024-01-25T00:57:44.947Z,32.30
2024-01-25T00:58:17.371Z,33.73
2024-01-25T00:58:53.496Z,32.83
2024-01-25T00:59:25.945Z,33.77
2024-01-25T00:59:58.098Z,33.17
2024-01-25T01:00:30.268Z,33.20
2024-01-25T01:01:03.000Z,32.83
2024-01-25T01:01:35.186Z,33.27
2024-01-25T01:02:12.377Z,33.43
2024-01-25T01:02:45.127Z,32.83
2024-01-25T01:03:19.448Z,32.03
2024-01-25T01:03:54.329Z,33.20
2024-01-25T01:04:27.964Z,34.33
2024-01-25T01:05:00.382Z,33.30
2024-01-25T01:05:32.919Z,33.90
2024-01-25T01:06:05.345Z,33.40
2024-01-25T01:06:37.963Z,33.23
2024-01-25T01:07:15.400Z,34.87
2024-01-25T01:07:47.868Z,34.00
2024-01-25T01:08:20.077Z,32.70
2024-01-25T01:08:52.204Z,33.27
2024-01-25T01:09:24.064Z,32.00
2024-01-25T01:09:56.025Z,32.63
2024-01-25T01:10:28.013Z,33.57
2024-01-25T01:10:59.956Z,32.67
2024-01-25T01:11:33.421Z,33.97
2024-01-25T01:12:05.526Z,34.27
2024-01-25T01:12:40.065Z,33.43
2024-01-25T01:13:13.081Z,32.63
2024-01-25T01:13:44.968Z,32.77
2024-01-25T01:14:17.164Z,33.47
2024-01-25T01:14:49.345Z,32.50
2024-01-25T01:15:21.264Z,32.00
2024-01-25T01:15:54.549Z,32.77
2024-01-25T01:16:26.668Z,31.37
2024-01-25T01:16:58.650Z,33.90
2024-01-25T01:17:30.706Z,33.03
2024-01-25T01:18:02.671Z,32.40
2024-01-25T01:18:34.782Z,31.47
2024-01-25T01:19:09.320Z,32.83
2024-01-25T01:19:41.414Z,31.23
2024-01-25T01:20:13.486Z,31.73
2024-01-25T01:20:47.284Z,32.97
2024-01-25T01:21:19.359Z,33.70
2024-01-25T01:21:51.350Z,33.47
2024-01-25T01:22:24.059Z,33.77
2024-01-25T01:22:56.150Z,32.57
2024-01-25T01:23:30.996Z,33.50
2024-01-25T01:24:30.435Z,33.80
2024-01-25T01:25:08.413Z,32.90
2024-01-25T01:25:40.487Z,32.30
2024-01-25T01:26:12.557Z,30.67
2024-01-25T01:26:45.524Z,33.30
2024-01-25T01:27:17.470Z,32.43
2024-01-25T01:27:51.630Z,32.83
2024-01-25T01:28:24.893Z,31.60
2024-01-25T01:28:57.245Z,32.87
2024-01-25T01:29:30.054Z,32.57
2024-01-25T01:30:02.082Z,33.00
2024-01-25T01:30:34.102Z,32.83
2024-01-25T01:31:07.138Z,32.20
2024-01-25T01:31:39.617Z,31.77
2024-01-25T01:32:11.903Z,31.67
2024-01-25T01:32:44.105Z,31.23
2024-01-25T01:33:16.077Z,31.27
2024-01-25T01:33:48.420Z,31.63
2024-01-25T01:34:20.649Z,31.50
2024-01-25T01:34:53.862Z,33.70
2024-01-25T01:35:26.324Z,31.40
2024-01-25T01:35:58.329Z,32.13
2024-01-25T01:36:30.397Z,31.97
2024-01-25T01:37:02.389Z,31.60
2024-01-25T01:37:40.296Z,33.10
2024-01-25T01:38:14.382Z,32.37
2024-01-25T01:38:46.605Z,32.30
2024-01-25T01:39:19.632Z,31.97
2024-01-25T01:39:52.101Z,32.03
2024-01-25T01:40:29.144Z,31.33
2024-01-25T01:41:01.287Z,29.13
2024-01-25T01:41:33.448Z,30.30
2024-01-25T01:42:10.042Z,32.13
2024-01-25T01:42:44.094Z,31.93
2024-01-25T01:43:19.880Z,32.00
2024-01-25T01:43:55.387Z,31.37
2024-01-25T01:44:28.319Z,31.53
2024-01-25T01:45:03.264Z,30.87
2024-01-25T01:45:36.718Z,32.30
2024-01-25T01:46:13.554Z,32.67
2024-01-25T01:46:46.145Z,33.13
2024-01-25T01:47:19.918Z,32.03
2024-01-25T01:47:53.967Z,33.00
2024-01-25T01:48:27.194Z,32.57
2024-01-25T01:49:00.098Z,32.20
2024-01-25T01:49:33.232Z,32.30
2024-01-25T01:50:07.011Z,32.87
2024-01-25T01:50:39.646Z,32.87
2024-01-25T01:51:13.442Z,32.90
2024-01-25T01:51:46.712Z,33.83
2024-01-25T01:52:19.748Z,33.33
2024-01-25T01:52:53.064Z,32.63
2024-01-25T01:53:24.935Z,32.27
2024-01-25T01:53:57.770Z,33.07
2024-01-25T01:54:29.918Z,32.00
2024-01-25T01:55:02.571Z,32.73
2024-01-25T01:55:34.929Z,32.53
2024-01-25T01:56:07.835Z,32.83
2024-01-25T01:56:42.989Z,32.53
2024-01-25T01:57:15.110Z,32.57
2024-01-25T01:57:48.676Z,32.90
2024-01-25T01:58:22.738Z,31.80
2024-01-25T01:58:55.414Z,32.87
2024-01-25T01:59:27.354Z,32.43
2024-01-25T02:00:00.409Z,33.33
2024-01-25T02:00:32.303Z,33.50
2024-01-25T02:01:04.869Z,32.73
2024-01-25T02:01:36.994Z,32.70
2024-01-25T02:02:09.026Z,32.93
2024-01-25T02:02:40.945Z,32.13
2024-01-25T02:03:12.962Z,31.57
2024-01-25T02:03:44.888Z,31.13
2024-01-25T02:04:17.075Z,31.47
2024-01-25T02:04:49.420Z,31.73
2024-01-25T02:05:21.347Z,31.20
2024-01-25T02:05:54.265Z,30.10
2024-01-25T02:06:26.517Z,32.10
2024-01-25T02:06:58.372Z,32.30
2024-01-25T02:07:31.646Z,32.33
2024-01-25T02:08:04.485Z,31.40
2024-01-25T02:08:36.292Z,30.87
2024-01-25T02:09:08.103Z,30.73
2024-01-25T02:09:42.673Z,31.60
2024-01-25T02:10:14.637Z,31.77
2024-01-25T02:10:46.523Z,31.70
2024-01-25T02:11:19.050Z,31.53
2024-01-25T02:12:00.058Z,31.67
2024-01-25T02:12:31.924Z,32.50
2024-01-25T02:13:04.041Z,31.40
2024-01-25T02:13:37.473Z,30.17
2024-01-25T02:14:12.370Z,30.13
2024-01-25T02:14:45.951Z,31.43
2024-01-25T02:15:17.788Z,30.67
2024-01-25T02:15:50.913Z,29.77
2024-01-25T02:16:23.472Z,30.37
2024-01-25T02:16:58.316Z,30.77
2024-01-25T02:53:24.521Z,29.30
2024-01-25T02:53:56.461Z,29.77
2024-01-25T02:54:31.094Z,30.63
2024-01-25T02:55:03.167Z,31.40
2024-01-25T02:55:35.347Z,30.03
2024-01-25T02:56:07.404Z,30.33
2024-01-25T02:56:39.432Z,31.57
2024-01-25T02:57:11.459Z,31.60
2024-01-25T02:57:43.433Z,30.90
2024-01-25T02:58:16.806Z,30.87
2024-01-25T02:58:48.668Z,31.47
2024-01-25T02:59:20.462Z,30.80
2024-01-25T02:59:52.341Z,31.70
2024-01-25T03:00:24.173Z,31.57
2024-01-25T03:00:56.132Z,30.50
2024-01-25T03:01:29.103Z,30.93
2024-01-25T03:02:01.178Z,29.70
2024-01-25T03:02:33.100Z,29.67
2024-01-25T03:03:05.174Z,32.77
2024-01-25T03:03:37.253Z,32.27
2024-01-25T03:04:09.736Z,32.47
2024-01-25T03:04:41.676Z,31.97
2024-01-25T03:05:14.756Z,32.03
2024-01-25T03:05:46.789Z,33.03
2024-01-25T03:06:18.745Z,33.40
2024-01-25T03:06:50.762Z,32.80
2024-01-25T03:07:23.336Z,33.00
2024-01-25T03:07:55.324Z,31.93
2024-01-25T03:08:27.404Z,32.10
2024-01-25T03:08:59.387Z,31.20
2024-01-25T03:09:31.299Z,31.87
2024-01-25T03:10:04.030Z,31.50
2024-01-25T03:10:35.867Z,32.10
2024-01-25T03:11:07.813Z,32.47
2024-01-25T03:11:39.609Z,33.77
2024-01-25T03:12:11.669Z,31.77
2024-01-25T03:12:43.812Z,32.93
2024-01-25T03:13:15.827Z,34.23
2024-01-25T03:13:47.635Z,34.20
2024-01-25T03:14:22.364Z,33.80
2024-01-25T03:14:54.302Z,33.67
2024-01-25T03:15:26.191Z,34.70
2024-01-25T03:15:58.283Z,35.67
2024-01-25T03:16:30.204Z,36.47
2024-01-25T03:17:02.198Z,39.27
2024-01-25T03:17:34.084Z,36.53
2024-01-25T03:18:06.391Z,35.23
2024-01-25T03:18:38.610Z,35.33
2024-01-25T03:19:11.577Z,34.90
2024-01-25T03:19:43.805Z,33.70
2024-01-25T03:20:16.005Z,32.57
2024-01-25T03:20:48.027Z,32.53
2024-01-25T03:21:19.933Z,33.67
2024-01-25T03:21:51.885Z,34.30
2024-01-25T03:22:24.252Z,34.73
2024-01-25T03:22:57.088Z,34.10
2024-01-25T03:23:29.437Z,35.13
2024-01-25T03:24:01.222Z,36.97
2024-01-25T03:24:33.283Z,34.03
2024-01-25T03:25:05.328Z,31.73
2024-01-25T03:25:37.161Z,33.90
2024-01-25T03:26:09.067Z,32.80
2024-01-25T03:26:40.923Z,32.93
2024-01-25T03:27:14.782Z,32.57
2024-01-25T03:27:46.700Z,31.63
2024-01-25T03:28:20.193Z,31.93
2024-01-25T03:28:54.742Z,31.73
2024-01-25T03:29:26.792Z,31.27
2024-01-25T03:29:58.693Z,32.47
2024-01-25T03:30:30.618Z,32.30
2024-01-25T03:31:02.669Z,31.90
2024-01-25T03:31:34.901Z,31.83
2024-01-25T03:32:06.932Z,31.57
2024-01-25T03:32:38.902Z,32.00
2024-01-25T03:33:12.096Z,33.17
2024-01-25T03:33:44.198Z,32.53
2024-01-25T03:34:16.544Z,31.50
2024-01-25T03:34:48.890Z,31.90
2024-01-25T03:35:20.971Z,32.47
2024-01-25T03:35:53.301Z,32.70
2024-01-25T03:36:25.256Z,31.33
2024-01-25T03:36:57.487Z,32.70
2024-01-25T03:37:29.474Z,33.07
2024-01-25T03:38:01.879Z,33.63
2024-01-25T03:38:35.394Z,33.07
2024-01-25T03:39:08.507Z,32.73
2024-01-25T03:39:40.569Z,32.07
2024-01-25T03:40:12.608Z,31.53
2024-01-25T03:40:45.614Z,32.57
2024-01-25T03:41:17.595Z,32.60
2024-01-25T03:41:49.978Z,32.57
2024-01-25T03:42:24.725Z,32.83
2024-01-25T05:28:30.158Z,43.27
2024-01-25T05:29:02.221Z,42.30
2024-01-25T05:29:34.218Z,42.93
2024-01-25T05:30:06.683Z,42.87
2024-01-25T05:30:38.984Z,41.20
2024-01-25T05:31:14.018Z,41.83
2024-01-25T05:31:46.057Z,42.80
2024-01-25T05:32:17.893Z,42.47
2024-01-25T05:32:55.148Z,40.90
2024-01-25T05:33:27.177Z,41.80
2024-01-25T05:34:00.624Z,42.07
2024-01-25T05:34:32.857Z,39.93
2024-01-25T05:35:05.344Z,41.57
2024-01-25T05:35:37.763Z,41.80
2024-01-25T05:36:10.225Z,41.80
2024-01-25T05:36:42.892Z,41.03
2024-01-25T05:37:15.704Z,42.40
2024-01-25T05:37:47.591Z,41.87
2024-01-25T05:38:19.448Z,42.03
2024-01-25T05:38:52.377Z,43.90
2024-01-25T05:39:24.342Z,42.30
2024-01-25T05:39:56.247Z,44.03
2024-01-25T05:40:29.724Z,45.37
2024-01-25T05:41:02.000Z,46.50
2024-01-25T05:41:33.961Z,46.33
2024-01-25T05:42:05.949Z,45.53
2024-01-25T05:42:37.919Z,45.07
2024-01-25T05:43:11.398Z,44.03
2024-01-25T05:43:43.328Z,44.50
2024-01-25T05:44:15.312Z,47.00
2024-01-25T05:44:47.656Z,46.60
2024-01-25T05:45:21.770Z,45.90
2024-01-25T05:45:53.619Z,45.67
2024-01-25T05:46:25.676Z,45.40
2024-01-25T05:46:57.940Z,44.67
2024-01-25T05:47:29.934Z,44.97
2024-01-25T05:48:02.323Z,45.57
2024-01-25T05:48:38.529Z,46.90
2024-01-25T05:49:10.595Z,45.50
2024-01-25T05:49:42.753Z,46.70
2024-01-25T05:50:15.747Z,45.13
2024-01-25T05:50:48.593Z,46.27
2024-01-25T05:51:20.367Z,46.00
2024-01-25T05:51:52.196Z,46.70
2024-01-25T05:52:25.505Z,47.33
2024-01-25T05:52:57.404Z,47.37
2024-01-25T05:53:29.371Z,47.43
2024-01-25T05:54:01.249Z,46.40
2024-01-25T05:54:33.835Z,44.97
2024-01-25T05:55:10.841Z,46.13
2024-01-25T05:55:42.753Z,46.20
2024-01-25T05:56:14.790Z,46.20
2024-01-25T05:56:46.633Z,45.23
2024-01-25T05:57:18.781Z,45.43
2024-01-25T05:57:50.885Z,44.13
2024-01-25T05:58:23.916Z,44.93
2024-01-25T05:58:55.941Z,44.53
2024-01-25T05:59:27.978Z,44.23
2024-01-25T05:59:59.883Z,44.00
2024-01-25T06:00:31.854Z,43.73
2024-01-25T06:01:04.197Z,43.80
2024-01-25T06:01:36.171Z,43.67
2024-01-25T06:02:15.236Z,43.40
2024-01-25T06:02:47.234Z,43.57
2024-01-25T06:03:19.141Z,44.07
2024-01-25T06:03:51.180Z,43.80
2024-01-25T06:04:23.336Z,42.63
2024-01-25T06:04:55.349Z,43.13
2024-01-25T06:05:28.677Z,42.43
2024-01-25T06:06:01.194Z,43.07
2024-01-25T06:06:33.282Z,43.77
2024-01-25T06:07:05.771Z,41.97
2024-01-25T06:07:37.993Z,42.53
2024-01-25T06:08:10.082Z,41.80
2024-01-25T06:08:42.618Z,41.50
2024-01-25T06:09:18.849Z,41.47
2024-01-25T06:09:51.841Z,41.37
2024-01-25T06:10:25.205Z,40.67
2024-01-25T06:10:57.080Z,39.30
2024-01-25T06:11:28.914Z,38.87
2024-01-25T06:12:00.741Z,39.70
2024-01-25T06:12:32.583Z,39.77
2024-01-25T06:13:04.663Z,40.87
2024-01-25T06:13:36.852Z,44.57
2024-01-25T06:14:09.502Z,45.10
2024-01-25T06:14:41.424Z,43.60
2024-01-25T06:15:13.259Z,44.47
2024-01-25T06:15:45.107Z,43.07
2024-01-25T06:16:17.024Z,41.07
2024-01-25T06:16:49.302Z,44.67
2024-01-25T06:17:21.211Z,45.47
2024-01-25T06:17:53.304Z,41.30
2024-01-25T06:18:25.345Z,42.47
2024-01-25T06:18:57.440Z,44.63
2024-01-25T06:19:29.548Z,46.53
2024-01-25T06:20:01.624Z,46.07
2024-01-25T06:20:34.086Z,45.07
2024-01-25T06:21:06.158Z,43.93
2024-01-25T06:21:42.329Z,42.43
2024-01-25T06:22:14.295Z,46.13
2024-01-25T06:22:46.285Z,46.07
2024-01-25T06:23:18.095Z,46.37
2024-01-25T06:23:49.876Z,46.80
2024-01-25T06:24:21.665Z,42.73
2024-01-25T06:24:53.537Z,45.77
2024-01-25T06:25:25.503Z,44.73
2024-01-25T06:25:57.885Z,44.33
2024-01-25T06:26:32.817Z,44.83
2024-01-25T06:27:04.930Z,47.90
2024-01-25T06:27:36.743Z,45.20
2024-01-25T06:28:11.004Z,44.17
2024-01-25T06:28:45.613Z,42.03
2024-01-25T06:29:17.478Z,42.57
2024-01-25T06:29:51.748Z,43.80
2024-01-25T06:30:23.689Z,45.40
2024-01-25T06:30:59.237Z,44.57
2024-01-25T06:31:34.079Z,44.20
2024-01-25T06:32:11.035Z,43.50
2024-01-25T06:32:46.128Z,41.97
2024-01-25T06:33:18.829Z,43.07
2024-01-25T06:33:52.418Z,44.67
2024-01-25T06:34:24.709Z,42.83
2024-01-25T06:34:56.904Z,42.10
2024-01-25T06:35:29.246Z,43.10
2024-01-25T06:36:01.360Z,41.87
2024-01-25T06:36:33.214Z,42.97
2024-01-25T06:37:05.273Z,44.00
2024-01-25T06:37:38.310Z,43.83
2024-01-25T06:38:11.160Z,42.87
2024-01-25T06:38:44.325Z,52.97
2024-01-25T06:39:18.178Z,61.33
2024-01-25T06:39:50.321Z,61.73
2024-01-25T06:40:22.370Z,53.03
2024-01-25T06:40:54.517Z,57.63
2024-01-25T06:41:26.558Z,60.53
2024-01-25T06:41:59.790Z,56.47
2024-01-25T06:42:31.634Z,50.13
2024-01-25T06:43:03.679Z,47.60
2024-01-25T06:43:38.172Z,46.20
2024-01-25T06:44:10.896Z,47.10
2024-01-25T06:44:42.742Z,46.93
2024-01-25T06:45:14.570Z,48.20
2024-01-25T06:45:47.780Z,46.93
2024-01-25T06:46:19.751Z,45.77
2024-01-25T06:46:51.596Z,47.27
2024-01-25T06:47:24.303Z,46.33
2024-01-25T06:47:56.335Z,46.70
2024-01-25T06:48:28.516Z,47.43
2024-01-25T06:49:00.666Z,49.63
2024-01-25T06:49:32.800Z,52.40
2024-01-25T06:50:04.874Z,51.13
2024-01-25T06:50:37.147Z,49.30
2024-01-25T06:51:09.057Z,50.93
2024-01-25T06:51:40.883Z,52.30
2024-01-25T06:52:13.458Z,53.87
2024-01-25T06:52:46.301Z,53.73
2024-01-25T06:53:18.264Z,53.47
2024-01-25T06:53:50.101Z,54.63
2024-01-25T06:54:22.613Z,55.93
2024-01-25T06:54:54.396Z,55.20
2024-01-25T06:55:28.959Z,54.97
2024-01-25T06:56:01.138Z,55.70
2024-01-25T06:56:33.468Z,54.67
2024-01-25T06:57:05.356Z,53.33
2024-01-25T06:57:37.134Z,54.93
2024-01-25T06:58:09.418Z,53.93
2024-01-25T06:58:41.707Z,54.60
2024-01-25T06:59:14.226Z,54.47
2024-01-25T06:59:46.263Z,52.23
2024-01-25T07:00:18.542Z,52.30
2024-01-25T07:00:50.947Z,53.27
2024-01-25T07:01:24.235Z,52.63
2024-01-25T07:01:57.184Z,51.57
2024-01-25T07:02:29.749Z,50.47
2024-01-25T07:03:02.044Z,51.77
2024-01-25T07:03:35.019Z,52.33
2024-01-25T07:04:15.006Z,52.00
2024-01-25T07:04:54.811Z,54.43
2024-01-25T07:05:28.115Z,52.90
2024-01-25T07:06:00.021Z,52.03
2024-01-25T07:06:38.004Z,49.40
2024-01-25T07:07:13.586Z,53.20
2024-01-25T07:07:45.585Z,52.40
2024-01-25T07:08:17.609Z,50.97
2024-01-25T07:08:50.369Z,52.43
2024-01-25T07:09:23.179Z,57.93
2024-01-25T07:09:55.532Z,61.10
2024-01-25T07:10:29.023Z,59.63
2024-01-25T07:11:03.644Z,60.97
2024-01-25T07:11:35.456Z,54.00
2024-01-25T07:12:08.473Z,54.30
2024-01-25T07:12:40.378Z,54.87
2024-01-25T07:13:12.385Z,55.80
2024-01-25T07:13:44.560Z,50.20
2024-01-25T07:14:19.245Z,48.80
2024-01-25T07:14:51.078Z,49.30
2024-01-25T07:15:23.328Z,46.07
2024-01-25T07:15:56.235Z,44.63
2024-01-25T07:16:28.105Z,45.43
2024-01-25T07:17:00.282Z,43.87
2024-01-25T07:17:32.272Z,41.97
2024-01-25T07:18:05.020Z,41.50
2024-01-25T07:18:37.131Z,41.70
2024-01-25T07:19:09.099Z,43.13
2024-01-25T07:19:41.183Z,44.60
2024-01-25T07:20:16.039Z,43.37
2024-01-25T07:20:48.243Z,44.80
2024-01-25T07:21:21.649Z,42.33
2024-01-25T07:21:53.574Z,39.80
2024-01-25T07:22:28.018Z,42.20
2024-01-25T07:23:03.044Z,53.03
2024-01-25T07:23:35.301Z,49.67
2024-01-25T07:24:10.566Z,48.50
2024-01-25T07:24:44.783Z,50.57
2024-01-25T07:25:16.823Z,44.10
2024-01-25T07:25:48.720Z,47.90
2024-01-25T07:26:25.135Z,48.90
2024-01-25T07:26:59.338Z,48.83
2024-01-25T07:27:32.266Z,47.47
2024-01-25T07:28:06.457Z,44.07
2024-01-25T07:28:38.467Z,47.00
2024-01-25T07:29:10.428Z,52.43
2024-01-25T07:29:45.595Z,51.30
2024-01-25T07:30:17.971Z,52.63
2024-01-25T07:30:50.854Z,50.80
2024-01-25T07:31:24.490Z,52.00
2024-01-25T07:31:56.477Z,50.53
2024-01-25T07:32:28.675Z,47.10
2024-01-25T07:33:00.911Z,42.90
2024-01-25T07:33:37.092Z,44.43
2024-01-25T07:34:09.246Z,42.37
2024-01-25T07:34:41.257Z,41.20
2024-01-25T07:35:14.205Z,41.20
2024-01-25T07:35:49.402Z,45.17
2024-01-25T07:36:25.816Z,41.43
2024-01-25T07:36:58.919Z,38.50
2024-01-25T07:37:33.801Z,38.80
2024-01-25T07:38:06.998Z,38.30
2024-01-25T07:38:38.792Z,38.67
2024-01-25T07:39:12.390Z,37.30
2024-01-25T07:39:44.167Z,37.43
2024-01-25T07:40:16.640Z,37.83
2024-01-25T07:40:48.558Z,36.67
2024-01-25T07:41:20.378Z,36.40
2024-01-25T07:41:53.034Z,36.10
2024-01-25T07:42:27.700Z,38.47
2024-01-25T07:43:01.976Z,41.07
2024-01-25T07:43:34.222Z,40.87
2024-01-25T07:44:07.305Z,42.87
2024-01-25T07:44:39.442Z,38.17
2024-01-25T07:45:13.912Z,37.97
2024-01-25T07:45:45.949Z,35.20
2024-01-25T07:46:22.603Z,35.07
2024-01-25T07:46:55.838Z,34.07
2024-01-25T07:47:27.639Z,35.37
2024-01-25T07:48:08.521Z,35.73
2024-01-25T07:48:44.351Z,36.47
2024-01-25T07:49:17.182Z,35.57
2024-01-25T07:49:52.211Z,36.53
2024-01-25T07:50:24.645Z,36.57
2024-01-25T07:50:57.931Z,36.00
2024-01-25T07:51:31.658Z,35.23
2024-01-25T07:52:03.749Z,35.60
2024-01-25T07:52:35.782Z,36.83
2024-01-25T07:53:08.256Z,35.13
2024-01-25T07:53:41.264Z,34.13
2024-01-25T07:54:15.318Z,34.63
2024-01-25T07:54:47.980Z,34.50
2024-01-25T07:55:19.987Z,36.63
2024-01-25T07:55:52.682Z,35.77
2024-01-25T07:56:24.575Z,36.00
2024-01-25T07:56:56.459Z,34.00
2024-01-25T07:57:28.407Z,34.20
2024-01-25T07:58:00.371Z,35.70
2024-01-25T07:58:32.560Z,34.70
2024-01-25T07:59:05.632Z,35.00
2024-01-25T07:59:37.520Z,34.50
2024-01-25T08:00:10.604Z,35.27
2024-01-25T08:00:43.783Z,35.53
2024-01-25T08:01:18.784Z,37.80
2024-01-25T08:01:50.806Z,37.33
2024-01-25T08:02:26.279Z,38.10
2024-01-25T08:03:01.161Z,37.27
2024-01-25T08:03:34.150Z,37.73
2024-01-25T08:04:06.728Z,36.10
2024-01-25T08:04:38.840Z,36.40
2024-01-25T08:05:13.786Z,36.07
2024-01-25T08:05:51.019Z,35.97
2024-01-25T08:06:24.954Z,36.10
2024-01-25T08:06:56.984Z,34.97
2024-01-25T08:07:30.122Z,35.30
2024-01-25T08:08:02.163Z,36.27
2024-01-25T08:08:33.972Z,36.07
2024-01-25T08:09:05.802Z,36.90
2024-01-25T08:09:37.713Z,35.90
2024-01-25T08:10:09.865Z,34.80
2024-01-25T08:10:42.497Z,36.53
2024-01-25T08:11:14.452Z,36.60
2024-01-25T08:11:47.250Z,36.97
2024-01-25T08:12:19.478Z,36.77
2024-01-25T08:12:55.806Z,39.83
2024-01-25T08:13:38.778Z,37.80
2024-01-25T08:14:10.730Z,37.23
2024-01-25T08:14:44.278Z,38.83
2024-01-25T08:15:16.058Z,38.17
2024-01-25T08:15:47.863Z,38.13
2024-01-25T08:16:20.999Z,37.33
2024-01-25T08:16:53.197Z,38.10
2024-01-25T08:17:25.053Z,37.53
2024-01-25T08:17:57.001Z,36.97
2024-01-25T08:18:31.860Z,37.23
2024-01-25T08:19:05.058Z,37.57
2024-01-25T08:19:37.587Z,36.57
2024-01-25T08:20:10.962Z,36.17
2024-01-25T08:20:43.315Z,37.83
2024-01-25T08:21:15.852Z,38.13
2024-01-25T08:21:48.204Z,38.33
2024-01-25T08:22:23.223Z,39.53
2024-01-25T08:22:55.812Z,38.40
2024-01-25T08:23:27.681Z,38.53
2024-01-25T08:24:03.814Z,41.07
2024-01-25T08:24:35.645Z,38.03
2024-01-25T08:25:07.676Z,37.57
2024-01-25T08:25:40.545Z,37.97
2024-01-25T08:26:13.920Z,36.93
2024-01-25T08:26:46.636Z,36.67
2024-01-25T08:27:18.797Z,37.63
2024-01-25T08:35:42.003Z,37.70
2024-01-25T08:36:14.629Z,36.60
2024-01-25T08:36:46.428Z,36.83
2024-01-25T08:37:18.209Z,39.80
2024-01-25T08:37:50.779Z,39.73
2024-01-25T08:38:22.651Z,41.27
2024-01-25T08:38:54.417Z,43.53
2024-01-25T08:39:26.238Z,41.53
2024-01-25T08:39:58.068Z,42.03
2024-01-25T08:40:31.413Z,42.57
2024-01-25T08:41:03.475Z,44.33
2024-01-25T08:41:35.833Z,39.47
2024-01-25T08:42:11.460Z,37.83
2024-01-25T08:42:43.728Z,37.90
2024-01-25T08:43:16.070Z,40.00
2024-01-25T08:43:49.458Z,39.33
2024-01-25T08:44:21.234Z,35.97
2024-01-25T08:44:53.144Z,35.90
2024-01-25T08:45:25.260Z,35.77
2024-01-25T08:46:06.738Z,36.00
2024-01-25T08:46:39.512Z,36.63
2024-01-25T08:47:11.830Z,36.97
2024-01-25T08:47:47.891Z,37.03
2024-01-25T08:48:20.011Z,36.20
2024-01-25T08:48:52.774Z,36.50
2024-01-25T08:49:25.035Z,35.37
2024-01-25T08:49:57.523Z,35.40
2024-01-25T08:50:29.739Z,33.80
2024-01-25T08:51:03.794Z,32.87
2024-01-25T08:51:36.833Z,32.73
2024-01-25T08:52:09.293Z,32.93
2024-01-25T08:52:42.450Z,32.00
2024-01-25T08:53:15.327Z,31.27
2024-01-25T08:53:47.231Z,31.70
2024-01-25T08:54:19.024Z,31.23
2024-01-25T08:54:52.982Z,31.33
2024-01-25T08:55:25.100Z,31.70
2024-01-25T08:55:58.024Z,31.83
2024-01-25T08:56:29.799Z,30.93
2024-01-25T08:57:01.721Z,29.83
2024-01-25T08:57:33.794Z,30.17
2024-01-25T08:58:05.744Z,31.07
2024-01-25T08:58:37.543Z,30.20
2024-01-25T08:59:09.357Z,31.93
2024-01-25T08:59:41.136Z,31.80
2024-01-25T09:00:13.221Z,29.77
2024-01-25T09:00:45.378Z,29.97
2024-01-25T09:01:17.542Z,30.63
2024-01-25T09:01:49.525Z,29.13
2024-01-25T09:03:09.873Z,30.53
2024-01-25T09:03:42.611Z,29.53
2024-01-25T09:04:15.676Z,29.30
2024-01-25T09:04:49.271Z,29.13
2024-01-25T09:05:21.711Z,28.07
2024-01-25T09:05:53.893Z,27.80
2024-01-25T09:06:26.501Z,28.10
2024-01-25T09:06:58.727Z,29.10
2024-01-25T09:07:30.998Z,29.13
2024-01-25T09:08:04.887Z,27.77
2024-01-25T09:08:36.879Z,27.80
2024-01-25T09:09:09.995Z,27.43
2024-01-25T09:09:42.004Z,28.50
2024-01-25T09:10:15.535Z,29.13
2024-01-25T09:10:47.464Z,28.73
2024-01-25T09:11:21.177Z,27.77
2024-01-25T09:11:52.977Z,29.17
2024-01-25T09:12:24.857Z,29.03
2024-01-25T09:12:56.927Z,29.07
2024-01-25T09:13:30.997Z,28.90
2024-01-25T09:14:02.894Z,29.20
2024-01-25T09:14:34.667Z,29.13
2024-01-25T09:15:06.915Z,29.37
2024-01-25T09:15:38.873Z,30.23
2024-01-25T09:16:10.719Z,28.93
2024-01-25T09:16:42.654Z,29.20
2024-01-25T09:17:15.817Z,30.10
2024-01-25T09:17:47.682Z,31.70
2024-01-25T09:18:20.726Z,30.80
2024-01-25T09:18:52.748Z,30.07
2024-01-25T09:19:25.304Z,31.20
2024-01-25T09:20:00.498Z,31.03
2024-01-25T09:20:32.544Z,30.43
2024-01-25T09:21:04.493Z,30.63
2024-01-25T09:21:39.228Z,30.20
2024-01-25T09:22:11.398Z,31.73
2024-01-25T09:22:43.730Z,32.13
2024-01-25T09:23:19.066Z,31.27
2024-01-25T09:23:50.946Z,30.43
2024-01-25T09:24:24.865Z,30.10
2024-01-25T09:24:56.831Z,31.60
2024-01-25T09:25:28.760Z,32.77
2024-01-25T09:26:00.871Z,33.63
2024-01-25T09:26:32.760Z,34.00
2024-01-25T09:27:05.166Z,32.63
2024-01-25T09:27:38.108Z,33.83
2024-01-25T09:28:10.452Z,34.07
2024-01-25T09:28:42.584Z,34.90
2024-01-25T09:29:14.454Z,34.93
2024-01-25T09:29:46.620Z,34.03
2024-01-25T09:30:18.536Z,33.27
2024-01-25T09:30:50.466Z,33.80
2024-01-25T09:31:25.003Z,34.37
2024-01-25T09:31:56.936Z,32.43
2024-01-25T09:32:28.986Z,32.23
2024-01-25T09:33:01.017Z,31.17
2024-01-25T09:33:33.104Z,28.60